BEL3YX EBBR-LEAL
Flight info
| Callsign | BEL3YX |
|---|---|
| Flight time | 2h 8m |
| Altitude | 39000 |
| Route | CIV N872 MEDIL DCT RESMI UN857 DISAK DCT DIRMO DCT GUERE DCT EVPOK DCT AGN DCT ANETO DCT POSSY DCT XIMPE DCT RIMES DCT VLC |
| Aircraft | A320/M-DE3FGHIJ1LORVWY/H |
Departure
| Time | 2026-05-05 04:56 |
|---|---|
| Airport | Brussels Airport (EBBR) |
Arrival
| Time | 2026-05-05 07:04 |
|---|---|
| Airport | Alicante-Elche Miguel Hernández Airport (LEAL) |
| Time | Latitude | Longitude | Altitude | Speed | Heading |
|---|---|---|---|---|---|
| 2026-05-05 04:33 | 50.90356 | 4.48430 | 120 ft | 0 kts | 155° |
| 2026-05-05 04:48 | 50.90368 | 4.48420 | 117 ft | 4 kts | 152° |
| 2026-05-05 04:48 | 50.90391 | 4.48399 | 117 ft | 4 kts | 144° |
| 2026-05-05 04:49 | 50.90412 | 4.48372 | 116 ft | 4 kts | 131° |
| 2026-05-05 04:49 | 50.90426 | 4.48338 | 117 ft | 4 kts | 98° |
| 2026-05-05 04:49 | 50.90426 | 4.48315 | 117 ft | 0 kts | 65° |
| 2026-05-05 04:51 | 50.90434 | 4.48346 | 117 ft | 9 kts | 65° |
| 2026-05-05 04:51 | 50.90463 | 4.48447 | 119 ft | 10 kts | 65° |
| 2026-05-05 04:51 | 50.90493 | 4.48548 | 120 ft | 10 kts | 60° |
| 2026-05-05 04:52 | 50.90554 | 4.48600 | 119 ft | 11 kts | 12° |
| 2026-05-05 04:52 | 50.90610 | 4.48680 | 120 ft | 12 kts | 63° |
| 2026-05-05 04:52 | 50.90647 | 4.48811 | 119 ft | 14 kts | 66° |
| 2026-05-05 04:52 | 50.90689 | 4.48955 | 118 ft | 15 kts | 65° |
| 2026-05-05 04:53 | 50.90735 | 4.49112 | 121 ft | 16 kts | 65° |
| 2026-05-05 04:53 | 50.90782 | 4.49276 | 122 ft | 17 kts | 65° |
| 2026-05-05 04:53 | 50.90832 | 4.49447 | 122 ft | 17 kts | 65° |
| 2026-05-05 04:53 | 50.90884 | 4.49627 | 123 ft | 19 kts | 65° |
| 2026-05-05 04:54 | 50.90927 | 4.49775 | 123 ft | 15 kts | 62° |
| 2026-05-05 04:54 | 50.91006 | 4.49893 | 121 ft | 18 kts | 29° |
| 2026-05-05 04:54 | 50.91092 | 4.49947 | 117 ft | 10 kts | 8° |
| 2026-05-05 04:54 | 50.91132 | 4.49874 | 118 ft | 10 kts | 265° |
| 2026-05-05 04:55 | 50.91091 | 4.49712 | 118 ft | 37 kts | 245° |
| 2026-05-05 04:55 | 50.90879 | 4.48971 | 120 ft | 107 kts | 245° |
| 2026-05-05 04:55 | 50.90490 | 4.47632 | 123 ft | 159 kts | 245° |
| 2026-05-05 04:55 | 50.89995 | 4.45911 | 479 ft | 172 kts | 248° |
| 2026-05-05 04:56 | 50.89515 | 4.44178 | 1171 ft | 172 kts | 253° |
| 2026-05-05 04:56 | 50.89144 | 4.42403 | 1777 ft | 173 kts | 256° |
| 2026-05-05 04:56 | 50.88785 | 4.40503 | 2148 ft | 190 kts | 256° |
| 2026-05-05 04:56 | 50.88387 | 4.38381 | 2421 ft | 214 kts | 254° |
| 2026-05-05 04:57 | 50.87610 | 4.36227 | 2725 ft | 240 kts | 225° |
| 2026-05-05 04:57 | 50.86160 | 4.34692 | 3118 ft | 264 kts | 206° |
| 2026-05-05 04:57 | 50.84480 | 4.33357 | 3763 ft | 274 kts | 206° |
| 2026-05-05 04:57 | 50.82762 | 4.31992 | 4635 ft | 278 kts | 206° |
| 2026-05-05 04:58 | 50.80995 | 4.30585 | 5500 ft | 282 kts | 206° |
| 2026-05-05 04:58 | 50.79268 | 4.29181 | 6361 ft | 285 kts | 211° |
| 2026-05-05 04:58 | 50.77685 | 4.27292 | 7162 ft | 287 kts | 225° |
| 2026-05-05 04:58 | 50.76417 | 4.24845 | 7950 ft | 290 kts | 236° |
| 2026-05-05 04:59 | 50.75243 | 4.22234 | 8773 ft | 293 kts | 235° |
| 2026-05-05 04:59 | 50.74052 | 4.19603 | 9564 ft | 296 kts | 235° |
| 2026-05-05 04:59 | 50.72845 | 4.16953 | 10284 ft | 302 kts | 234° |
| 2026-05-05 04:59 | 50.71571 | 4.14163 | 10499 ft | 325 kts | 234° |
| 2026-05-05 05:00 | 50.70207 | 4.11175 | 10780 ft | 343 kts | 234° |
| 2026-05-05 05:00 | 50.68798 | 4.08087 | 11404 ft | 349 kts | 234° |
| 2026-05-05 05:00 | 50.67369 | 4.04963 | 12119 ft | 352 kts | 234° |
| 2026-05-05 05:00 | 50.65925 | 4.01812 | 12861 ft | 355 kts | 234° |
| 2026-05-05 05:01 | 50.64471 | 3.98648 | 13576 ft | 358 kts | 234° |
| 2026-05-05 05:01 | 50.63002 | 3.95461 | 14204 ft | 361 kts | 234° |
| 2026-05-05 05:01 | 50.61519 | 3.92245 | 14805 ft | 364 kts | 234° |
| 2026-05-05 05:01 | 50.60025 | 3.89001 | 15402 ft | 368 kts | 234° |
| 2026-05-05 05:02 | 50.58457 | 3.85869 | 15983 ft | 371 kts | 226° |
| 2026-05-05 05:02 | 50.56507 | 3.83176 | 16541 ft | 374 kts | 214° |
| 2026-05-05 05:02 | 50.54246 | 3.81133 | 17123 ft | 376 kts | 203° |
| 2026-05-05 05:02 | 50.51832 | 3.79500 | 17718 ft | 379 kts | 202° |
| 2026-05-05 05:03 | 50.49396 | 3.77847 | 18307 ft | 382 kts | 202° |
| 2026-05-05 05:03 | 50.46952 | 3.76179 | 18844 ft | 384 kts | 203° |
| 2026-05-05 05:03 | 50.44496 | 3.74499 | 19387 ft | 386 kts | 203° |
| 2026-05-05 05:03 | 50.42027 | 3.72811 | 19922 ft | 388 kts | 203° |
| 2026-05-05 05:04 | 50.39546 | 3.71125 | 20498 ft | 389 kts | 203° |
| 2026-05-05 05:04 | 50.37057 | 3.69440 | 21064 ft | 391 kts | 203° |
| 2026-05-05 05:04 | 50.34557 | 3.67738 | 21595 ft | 393 kts | 205° |
| 2026-05-05 05:04 | 50.32139 | 3.65712 | 22120 ft | 395 kts | 208° |
| 2026-05-05 05:05 | 50.29732 | 3.63611 | 22669 ft | 396 kts | 209° |
| 2026-05-05 05:05 | 50.27316 | 3.61505 | 23131 ft | 399 kts | 209° |
| 2026-05-05 05:05 | 50.24879 | 3.59384 | 23550 ft | 403 kts | 209° |
| 2026-05-05 05:05 | 50.22427 | 3.57255 | 23967 ft | 404 kts | 209° |
| 2026-05-05 05:06 | 50.19967 | 3.55122 | 24384 ft | 405 kts | 209° |
| 2026-05-05 05:06 | 50.18336 | 3.53711 | 24648 ft | 406 kts | 209° |
| 2026-05-05 05:06 | 50.15858 | 3.51565 | 25049 ft | 407 kts | 209° |
| 2026-05-05 05:06 | 50.12571 | 3.48725 | 25573 ft | 408 kts | 208° |
| 2026-05-05 05:07 | 50.10084 | 3.46582 | 25963 ft | 409 kts | 208° |
| 2026-05-05 05:07 | 50.08399 | 3.45134 | 26227 ft | 409 kts | 208° |
| 2026-05-05 05:07 | 50.05902 | 3.42993 | 26615 ft | 410 kts | 208° |
| 2026-05-05 05:07 | 50.03402 | 3.40848 | 26994 ft | 411 kts | 208° |
| 2026-05-05 05:08 | 50.00932 | 3.38727 | 27361 ft | 411 kts | 209° |
| 2026-05-05 05:08 | 49.98426 | 3.36573 | 27729 ft | 412 kts | 209° |
| 2026-05-05 05:08 | 49.95915 | 3.34416 | 28089 ft | 413 kts | 209° |
| 2026-05-05 05:08 | 49.93399 | 3.32262 | 28441 ft | 413 kts | 208° |
| 2026-05-05 05:09 | 49.90870 | 3.30105 | 28780 ft | 414 kts | 208° |
| 2026-05-05 05:09 | 49.88345 | 3.27958 | 29129 ft | 414 kts | 208° |
| 2026-05-05 05:09 | 49.85823 | 3.25814 | 29464 ft | 415 kts | 208° |
| 2026-05-05 05:09 | 49.83285 | 3.23657 | 29780 ft | 415 kts | 208° |
| 2026-05-05 05:10 | 49.80756 | 3.21506 | 30065 ft | 416 kts | 208° |
| 2026-05-05 05:10 | 49.78212 | 3.19343 | 30305 ft | 417 kts | 208° |
| 2026-05-05 05:10 | 49.75670 | 3.17184 | 30537 ft | 417 kts | 208° |
| 2026-05-05 05:10 | 49.73127 | 3.15027 | 30806 ft | 417 kts | 208° |
| 2026-05-05 05:11 | 49.70583 | 3.12870 | 31047 ft | 417 kts | 208° |
| 2026-05-05 05:11 | 49.68045 | 3.10723 | 31367 ft | 415 kts | 207° |
| 2026-05-05 05:11 | 49.65520 | 3.08590 | 31682 ft | 413 kts | 207° |
| 2026-05-05 05:11 | 49.63006 | 3.06470 | 32008 ft | 411 kts | 207° |
| 2026-05-05 05:12 | 49.60505 | 3.04361 | 32334 ft | 409 kts | 207° |
| 2026-05-05 05:12 | 49.58015 | 3.02265 | 32655 ft | 407 kts | 207° |
| 2026-05-05 05:12 | 49.55535 | 3.00182 | 32967 ft | 405 kts | 207° |
| 2026-05-05 05:12 | 49.53067 | 2.98109 | 33293 ft | 403 kts | 207° |
| 2026-05-05 05:13 | 49.50610 | 2.96048 | 33623 ft | 401 kts | 207° |
| 2026-05-05 05:13 | 49.48162 | 2.93999 | 33910 ft | 400 kts | 207° |
| 2026-05-05 05:13 | 49.45719 | 2.91956 | 34132 ft | 400 kts | 207° |
| 2026-05-05 05:13 | 49.43272 | 2.89909 | 34322 ft | 401 kts | 207° |
| 2026-05-05 05:14 | 49.40819 | 2.87863 | 34502 ft | 402 kts | 207° |
| 2026-05-05 05:14 | 49.38360 | 2.85814 | 34667 ft | 403 kts | 207° |
| 2026-05-05 05:14 | 49.35894 | 2.83762 | 34842 ft | 404 kts | 207° |
| 2026-05-05 05:14 | 49.33423 | 2.81707 | 35007 ft | 404 kts | 207° |
| 2026-05-05 05:15 | 49.30947 | 2.79648 | 35158 ft | 405 kts | 207° |
| 2026-05-05 05:15 | 49.28468 | 2.77592 | 35322 ft | 406 kts | 207° |
| 2026-05-05 05:15 | 49.25980 | 2.75528 | 35464 ft | 407 kts | 207° |
| 2026-05-05 05:15 | 49.23517 | 2.73491 | 35600 ft | 408 kts | 207° |
| 2026-05-05 05:16 | 49.21013 | 2.71426 | 35721 ft | 409 kts | 207° |
| 2026-05-05 05:16 | 49.18498 | 2.69355 | 35873 ft | 410 kts | 207° |
| 2026-05-05 05:16 | 49.15990 | 2.67286 | 36011 ft | 411 kts | 207° |
| 2026-05-05 05:16 | 49.13467 | 2.65209 | 36145 ft | 411 kts | 207° |
| 2026-05-05 05:17 | 49.10945 | 2.63137 | 36298 ft | 412 kts | 207° |
| 2026-05-05 05:17 | 49.08417 | 2.61058 | 36426 ft | 413 kts | 207° |
| 2026-05-05 05:17 | 49.05887 | 2.58977 | 36546 ft | 414 kts | 207° |
| 2026-05-05 05:17 | 49.03350 | 2.56893 | 36690 ft | 414 kts | 207° |
| 2026-05-05 05:18 | 49.00808 | 2.54813 | 36809 ft | 415 kts | 207° |
| 2026-05-05 05:18 | 48.98262 | 2.52736 | 36947 ft | 415 kts | 207° |
| 2026-05-05 05:18 | 48.95705 | 2.50652 | 37083 ft | 416 kts | 207° |
| 2026-05-05 05:18 | 48.93150 | 2.48567 | 37215 ft | 416 kts | 207° |
| 2026-05-05 05:19 | 48.90634 | 2.46512 | 37351 ft | 416 kts | 207° |
| 2026-05-05 05:19 | 48.88082 | 2.44433 | 37483 ft | 416 kts | 207° |
| 2026-05-05 05:19 | 48.85495 | 2.42325 | 37621 ft | 416 kts | 207° |
| 2026-05-05 05:19 | 48.82943 | 2.40245 | 37758 ft | 416 kts | 207° |
| 2026-05-05 05:20 | 48.80428 | 2.38201 | 37894 ft | 416 kts | 207° |
| 2026-05-05 05:20 | 48.77875 | 2.36131 | 38031 ft | 416 kts | 207° |
| 2026-05-05 05:20 | 48.75320 | 2.34067 | 38185 ft | 416 kts | 207° |
| 2026-05-05 05:20 | 48.72768 | 2.32008 | 38313 ft | 415 kts | 207° |
| 2026-05-05 05:21 | 48.70214 | 2.29946 | 38456 ft | 415 kts | 207° |
| 2026-05-05 05:21 | 48.67668 | 2.27892 | 38592 ft | 414 kts | 207° |
| 2026-05-05 05:21 | 48.65118 | 2.25839 | 38694 ft | 414 kts | 207° |
| 2026-05-05 05:21 | 48.62579 | 2.23798 | 38833 ft | 413 kts | 207° |
| 2026-05-05 05:22 | 48.60039 | 2.21756 | 38883 ft | 414 kts | 207° |
| 2026-05-05 05:22 | 48.54688 | 2.18476 | 38885 ft | 417 kts | 192° |
| 2026-05-05 05:23 | 48.48976 | 2.16645 | 38871 ft | 422 kts | 192° |
| 2026-05-05 05:23 | 48.43237 | 2.14805 | 38866 ft | 426 kts | 192° |
| 2026-05-05 05:24 | 48.37435 | 2.12933 | 38860 ft | 427 kts | 192° |
| 2026-05-05 05:24 | 48.31619 | 2.11058 | 38861 ft | 428 kts | 192° |
| 2026-05-05 05:25 | 48.25698 | 2.10554 | 38862 ft | 428 kts | 173° |
| 2026-05-05 05:25 | 48.19798 | 2.11810 | 38854 ft | 428 kts | 173° |
| 2026-05-05 05:26 | 48.13888 | 2.13052 | 38855 ft | 429 kts | 174° |
| 2026-05-05 05:26 | 48.07933 | 2.13478 | 38850 ft | 428 kts | 179° |
| 2026-05-05 05:27 | 48.01960 | 2.13830 | 38863 ft | 429 kts | 178° |
| 2026-05-05 05:27 | 47.93050 | 2.14370 | 38864 ft | 429 kts | 179° |
| 2026-05-05 05:28 | 47.87080 | 2.14718 | 38865 ft | 429 kts | 179° |
| 2026-05-05 05:28 | 47.81108 | 2.15063 | 38846 ft | 429 kts | 179° |
| 2026-05-05 05:29 | 47.75126 | 2.15409 | 38838 ft | 430 kts | 179° |
| 2026-05-05 05:29 | 47.69139 | 2.15766 | 38830 ft | 431 kts | 179° |
| 2026-05-05 05:30 | 47.63138 | 2.16108 | 38834 ft | 432 kts | 179° |
| 2026-05-05 05:30 | 47.57129 | 2.16453 | 38836 ft | 432 kts | 179° |
| 2026-05-05 05:31 | 47.51121 | 2.16809 | 38841 ft | 432 kts | 179° |
| 2026-05-05 05:31 | 47.45110 | 2.17155 | 38839 ft | 432 kts | 179° |
| 2026-05-05 05:32 | 47.39105 | 2.17505 | 38843 ft | 432 kts | 179° |
| 2026-05-05 05:32 | 47.33135 | 2.17851 | 38853 ft | 431 kts | 179° |
| 2026-05-05 05:33 | 47.27145 | 2.18192 | 38864 ft | 430 kts | 179° |
| 2026-05-05 05:33 | 47.21164 | 2.18533 | 38866 ft | 430 kts | 179° |
| 2026-05-05 05:34 | 47.15184 | 2.18874 | 38868 ft | 429 kts | 179° |
| 2026-05-05 05:34 | 47.09222 | 2.19180 | 38864 ft | 428 kts | 182° |
| 2026-05-05 05:35 | 47.03302 | 2.18564 | 38866 ft | 426 kts | 186° |
| 2026-05-05 05:35 | 46.97383 | 2.17880 | 38865 ft | 426 kts | 186° |
| 2026-05-05 05:36 | 46.91473 | 2.17203 | 38863 ft | 426 kts | 186° |
| 2026-05-05 05:36 | 46.85562 | 2.16528 | 38866 ft | 425 kts | 186° |
| 2026-05-05 05:37 | 46.79666 | 2.15848 | 38866 ft | 425 kts | 186° |
| 2026-05-05 05:37 | 46.73799 | 2.15173 | 38865 ft | 425 kts | 186° |
| 2026-05-05 05:38 | 46.67900 | 2.14498 | 38871 ft | 425 kts | 186° |
| 2026-05-05 05:38 | 46.62001 | 2.13828 | 38871 ft | 425 kts | 186° |
| 2026-05-05 05:39 | 46.56102 | 2.13151 | 38872 ft | 425 kts | 186° |
| 2026-05-05 05:39 | 46.50206 | 2.12474 | 38879 ft | 425 kts | 186° |
| 2026-05-05 05:40 | 46.44320 | 2.11799 | 38888 ft | 424 kts | 186° |
| 2026-05-05 05:40 | 46.38437 | 2.11131 | 38889 ft | 423 kts | 186° |
| 2026-05-05 05:41 | 46.32565 | 2.10477 | 38883 ft | 423 kts | 186° |
| 2026-05-05 05:41 | 46.26699 | 2.09827 | 38895 ft | 423 kts | 186° |
| 2026-05-05 05:42 | 46.20870 | 2.08862 | 38894 ft | 420 kts | 195° |
| 2026-05-05 05:42 | 46.15595 | 2.05503 | 38897 ft | 419 kts | 214° |
| 2026-05-05 05:43 | 46.10833 | 2.00666 | 38898 ft | 419 kts | 214° |
| 2026-05-05 05:43 | 46.06051 | 1.95868 | 38906 ft | 419 kts | 214° |
| 2026-05-05 05:44 | 46.01257 | 1.91064 | 38904 ft | 420 kts | 214° |
| 2026-05-05 05:44 | 45.96469 | 1.86250 | 38914 ft | 420 kts | 214° |
| 2026-05-05 05:45 | 45.91671 | 1.81444 | 38907 ft | 421 kts | 214° |
| 2026-05-05 05:45 | 45.86869 | 1.76650 | 38908 ft | 421 kts | 214° |
| 2026-05-05 05:46 | 45.82049 | 1.71867 | 38917 ft | 421 kts | 214° |
| 2026-05-05 05:46 | 45.77259 | 1.67098 | 38921 ft | 422 kts | 214° |
| 2026-05-05 05:47 | 45.72434 | 1.62298 | 38927 ft | 422 kts | 214° |
| 2026-05-05 05:47 | 45.67604 | 1.57518 | 38931 ft | 422 kts | 214° |
| 2026-05-05 05:48 | 45.62761 | 1.52737 | 38946 ft | 423 kts | 214° |
| 2026-05-05 05:48 | 45.57918 | 1.47951 | 38943 ft | 423 kts | 214° |
| 2026-05-05 05:49 | 45.53091 | 1.43202 | 38936 ft | 424 kts | 214° |
| 2026-05-05 05:49 | 45.48157 | 1.38605 | 38940 ft | 424 kts | 206° |
| 2026-05-05 05:50 | 45.42555 | 1.36034 | 38945 ft | 425 kts | 194° |
| 2026-05-05 05:50 | 45.36779 | 1.34167 | 38946 ft | 425 kts | 194° |
| 2026-05-05 05:51 | 45.31007 | 1.32288 | 38952 ft | 426 kts | 194° |
| 2026-05-05 05:51 | 45.25231 | 1.30411 | 38957 ft | 426 kts | 194° |
| 2026-05-05 05:52 | 45.20423 | 1.28862 | 38959 ft | 426 kts | 194° |
| 2026-05-05 05:52 | 45.14637 | 1.26997 | 38961 ft | 426 kts | 194° |
| 2026-05-05 05:53 | 45.07923 | 1.24826 | 38965 ft | 425 kts | 194° |
| 2026-05-05 05:53 | 45.03087 | 1.23275 | 38978 ft | 425 kts | 194° |
| 2026-05-05 05:54 | 44.97318 | 1.21425 | 38963 ft | 425 kts | 194° |
| 2026-05-05 05:54 | 44.91553 | 1.19571 | 38972 ft | 425 kts | 194° |
| 2026-05-05 05:55 | 44.85788 | 1.17729 | 38970 ft | 425 kts | 194° |
| 2026-05-05 05:55 | 44.80017 | 1.15881 | 38971 ft | 425 kts | 194° |
| 2026-05-05 05:56 | 44.74296 | 1.14060 | 38989 ft | 425 kts | 194° |
| 2026-05-05 05:56 | 44.68522 | 1.12237 | 38978 ft | 425 kts | 194° |
| 2026-05-05 05:57 | 44.62728 | 1.10408 | 38976 ft | 426 kts | 194° |
| 2026-05-05 05:57 | 44.56950 | 1.08576 | 38973 ft | 426 kts | 194° |
| 2026-05-05 05:58 | 44.51158 | 1.06741 | 38982 ft | 426 kts | 194° |
| 2026-05-05 05:58 | 44.45363 | 1.04919 | 38981 ft | 426 kts | 194° |
| 2026-05-05 05:59 | 44.39571 | 1.03106 | 38975 ft | 426 kts | 194° |
| 2026-05-05 05:59 | 44.33782 | 1.01284 | 38983 ft | 427 kts | 194° |
| 2026-05-05 06:00 | 44.27990 | 0.99466 | 38989 ft | 426 kts | 194° |
| 2026-05-05 06:00 | 44.22202 | 0.97658 | 38993 ft | 426 kts | 194° |
| 2026-05-05 06:01 | 44.16452 | 0.95868 | 38989 ft | 426 kts | 195° |
| 2026-05-05 06:01 | 44.10661 | 0.94068 | 38996 ft | 426 kts | 195° |
| 2026-05-05 06:02 | 44.04873 | 0.92266 | 38989 ft | 426 kts | 195° |
| 2026-05-05 06:02 | 43.99087 | 0.90464 | 38987 ft | 426 kts | 195° |
| 2026-05-05 06:03 | 43.93404 | 0.88708 | 38991 ft | 426 kts | 195° |
| 2026-05-05 06:03 | 43.87607 | 0.86931 | 38996 ft | 427 kts | 194° |
| 2026-05-05 06:04 | 43.81777 | 0.85318 | 38987 ft | 427 kts | 193° |
| 2026-05-05 06:04 | 43.75936 | 0.83818 | 38993 ft | 426 kts | 193° |
| 2026-05-05 06:05 | 43.70102 | 0.82303 | 39000 ft | 426 kts | 193° |
| 2026-05-05 06:05 | 43.64318 | 0.80765 | 39004 ft | 426 kts | 194° |
| 2026-05-05 06:06 | 43.58498 | 0.79209 | 39005 ft | 426 kts | 194° |
| 2026-05-05 06:06 | 43.52679 | 0.77654 | 39009 ft | 425 kts | 194° |
| 2026-05-05 06:07 | 43.46870 | 0.76115 | 39024 ft | 425 kts | 194° |
| 2026-05-05 06:07 | 43.41092 | 0.74583 | 39011 ft | 425 kts | 194° |
| 2026-05-05 06:08 | 43.35282 | 0.73053 | 39012 ft | 425 kts | 194° |
| 2026-05-05 06:08 | 43.29436 | 0.71511 | 39015 ft | 425 kts | 194° |
| 2026-05-05 06:09 | 43.23665 | 0.69994 | 39019 ft | 425 kts | 194° |
| 2026-05-05 06:09 | 43.17857 | 0.68469 | 39011 ft | 425 kts | 194° |
| 2026-05-05 06:10 | 43.12053 | 0.66949 | 39019 ft | 424 kts | 194° |
| 2026-05-05 06:10 | 43.06263 | 0.65437 | 39015 ft | 424 kts | 194° |
| 2026-05-05 06:11 | 43.00470 | 0.63928 | 38993 ft | 423 kts | 194° |
| 2026-05-05 06:11 | 42.94685 | 0.62427 | 38996 ft | 422 kts | 194° |
| 2026-05-05 06:12 | 42.88907 | 0.60923 | 39008 ft | 422 kts | 194° |
| 2026-05-05 06:12 | 42.83143 | 0.59424 | 39009 ft | 421 kts | 194° |
| 2026-05-05 06:13 | 42.77380 | 0.57925 | 39004 ft | 422 kts | 194° |
| 2026-05-05 06:13 | 42.71616 | 0.56438 | 39008 ft | 421 kts | 194° |
| 2026-05-05 06:14 | 42.66156 | 0.53850 | 39006 ft | 415 kts | 208° |
| 2026-05-05 06:14 | 42.60971 | 0.50518 | 38977 ft | 415 kts | 208° |
| 2026-05-05 06:15 | 42.55718 | 0.47143 | 38991 ft | 415 kts | 208° |
| 2026-05-05 06:15 | 42.50531 | 0.43830 | 38986 ft | 415 kts | 208° |
| 2026-05-05 06:16 | 42.45306 | 0.40504 | 39007 ft | 415 kts | 208° |
| 2026-05-05 06:16 | 42.40071 | 0.37187 | 38989 ft | 415 kts | 208° |
| 2026-05-05 06:17 | 42.34846 | 0.33866 | 38990 ft | 416 kts | 208° |
| 2026-05-05 06:17 | 42.29596 | 0.30527 | 38990 ft | 417 kts | 208° |
| 2026-05-05 06:18 | 42.24341 | 0.27194 | 39004 ft | 418 kts | 208° |
| 2026-05-05 06:18 | 42.19073 | 0.23869 | 38984 ft | 418 kts | 208° |
| 2026-05-05 06:19 | 42.13841 | 0.20576 | 39005 ft | 417 kts | 208° |
| 2026-05-05 06:19 | 42.08582 | 0.17271 | 39009 ft | 417 kts | 207° |
| 2026-05-05 06:20 | 42.02950 | 0.15226 | 39014 ft | 425 kts | 191° |
| 2026-05-05 06:20 | 41.97074 | 0.14352 | 38999 ft | 424 kts | 191° |
| 2026-05-05 06:21 | 41.91205 | 0.13477 | 39006 ft | 424 kts | 191° |
| 2026-05-05 06:21 | 41.85338 | 0.12599 | 39009 ft | 424 kts | 191° |
| 2026-05-05 06:22 | 41.79485 | 0.11723 | 39007 ft | 423 kts | 191° |
| 2026-05-05 06:22 | 41.73900 | 0.10886 | 38988 ft | 423 kts | 191° |
| 2026-05-05 06:23 | 41.68042 | 0.10015 | 38999 ft | 424 kts | 191° |
| 2026-05-05 06:23 | 41.62175 | 0.09152 | 39005 ft | 424 kts | 191° |
| 2026-05-05 06:24 | 41.56347 | 0.08287 | 39007 ft | 424 kts | 191° |
| 2026-05-05 06:24 | 41.50493 | 0.07418 | 39001 ft | 424 kts | 192° |
| 2026-05-05 06:25 | 41.44626 | 0.06551 | 39006 ft | 424 kts | 192° |
| 2026-05-05 06:25 | 41.38768 | 0.05689 | 39010 ft | 423 kts | 192° |
| 2026-05-05 06:26 | 41.32901 | 0.04830 | 38979 ft | 424 kts | 192° |
| 2026-05-05 06:26 | 41.27043 | 0.03976 | 38999 ft | 423 kts | 192° |
| 2026-05-05 06:27 | 41.18262 | 0.02684 | 39013 ft | 423 kts | 192° |
| 2026-05-05 06:28 | 41.12451 | 0.01834 | 38996 ft | 423 kts | 192° |
| 2026-05-05 06:28 | 41.06604 | 0.00983 | 39010 ft | 422 kts | 192° |
| 2026-05-05 06:29 | 41.00763 | 0.00130 | 39014 ft | 422 kts | 192° |
| 2026-05-05 06:29 | 40.94933 | -0.00714 | 39023 ft | 421 kts | 192° |
| 2026-05-05 06:30 | 40.89110 | -0.01567 | 38990 ft | 421 kts | 193° |
| 2026-05-05 06:30 | 40.83291 | -0.02411 | 39000 ft | 421 kts | 192° |
| 2026-05-05 06:31 | 40.77478 | -0.03259 | 39006 ft | 421 kts | 193° |
| 2026-05-05 06:31 | 40.71653 | -0.04097 | 39005 ft | 421 kts | 192° |
| 2026-05-05 06:32 | 40.65834 | -0.04933 | 39007 ft | 420 kts | 192° |
| 2026-05-05 06:32 | 40.60016 | -0.05778 | 39005 ft | 421 kts | 193° |
| 2026-05-05 06:33 | 40.54270 | -0.06990 | 39007 ft | 412 kts | 202° |
| 2026-05-05 06:33 | 40.48777 | -0.09183 | 39016 ft | 413 kts | 202° |
| 2026-05-05 06:34 | 40.43282 | -0.11368 | 39003 ft | 412 kts | 202° |
| 2026-05-05 06:34 | 40.37783 | -0.13534 | 39011 ft | 412 kts | 202° |
| 2026-05-05 06:35 | 40.32292 | -0.15691 | 39012 ft | 411 kts | 202° |
| 2026-05-05 06:35 | 40.26809 | -0.17847 | 39013 ft | 411 kts | 202° |
| 2026-05-05 06:36 | 40.21367 | -0.19986 | 39000 ft | 411 kts | 202° |
| 2026-05-05 06:36 | 40.15897 | -0.22134 | 39005 ft | 410 kts | 202° |
| 2026-05-05 06:37 | 40.10424 | -0.24289 | 38943 ft | 410 kts | 202° |
| 2026-05-05 06:37 | 40.07704 | -0.25356 | 38704 ft | 408 kts | 202° |
| 2026-05-05 06:37 | 40.04990 | -0.26414 | 38437 ft | 406 kts | 202° |
| 2026-05-05 06:37 | 40.02283 | -0.27466 | 38116 ft | 405 kts | 203° |
| 2026-05-05 06:38 | 39.99582 | -0.28517 | 37844 ft | 404 kts | 203° |
| 2026-05-05 06:38 | 39.96894 | -0.29565 | 37573 ft | 403 kts | 203° |
| 2026-05-05 06:38 | 39.94241 | -0.30603 | 37312 ft | 402 kts | 203° |
| 2026-05-05 06:38 | 39.91561 | -0.31649 | 37043 ft | 402 kts | 203° |
| 2026-05-05 06:39 | 39.88878 | -0.32694 | 36782 ft | 401 kts | 204° |
| 2026-05-05 06:39 | 39.86209 | -0.33735 | 36494 ft | 401 kts | 203° |
| 2026-05-05 06:39 | 39.83526 | -0.34782 | 35827 ft | 401 kts | 204° |
| 2026-05-05 06:39 | 39.81761 | -0.35471 | 35347 ft | 401 kts | 204° |
| 2026-05-05 06:40 | 39.79084 | -0.36516 | 34556 ft | 402 kts | 205° |
| 2026-05-05 06:40 | 39.76409 | -0.37559 | 33784 ft | 401 kts | 205° |
| 2026-05-05 06:40 | 39.73746 | -0.38592 | 33214 ft | 395 kts | 205° |
| 2026-05-05 06:40 | 39.71125 | -0.39598 | 32712 ft | 389 kts | 205° |
| 2026-05-05 06:41 | 39.68550 | -0.40585 | 32204 ft | 383 kts | 205° |
| 2026-05-05 06:41 | 39.66007 | -0.41561 | 31699 ft | 379 kts | 205° |
| 2026-05-05 06:41 | 39.63493 | -0.42526 | 31203 ft | 374 kts | 205° |
| 2026-05-05 06:41 | 39.61011 | -0.43479 | 30719 ft | 370 kts | 205° |
| 2026-05-05 06:42 | 39.58558 | -0.44423 | 30242 ft | 366 kts | 205° |
| 2026-05-05 06:42 | 39.56135 | -0.45361 | 29708 ft | 361 kts | 205° |
| 2026-05-05 06:42 | 39.53746 | -0.46283 | 29255 ft | 355 kts | 205° |
| 2026-05-05 06:42 | 39.51392 | -0.47189 | 28801 ft | 350 kts | 205° |
| 2026-05-05 06:43 | 39.49075 | -0.48081 | 28333 ft | 346 kts | 205° |
| 2026-05-05 06:43 | 39.46775 | -0.48955 | 27854 ft | 343 kts | 205° |
| 2026-05-05 06:43 | 39.44489 | -0.49789 | 27402 ft | 340 kts | 204° |
| 2026-05-05 06:43 | 39.42219 | -0.50597 | 26960 ft | 337 kts | 204° |
| 2026-05-05 06:44 | 39.39966 | -0.51389 | 26518 ft | 334 kts | 204° |
| 2026-05-05 06:44 | 39.37735 | -0.52171 | 26086 ft | 331 kts | 203° |
| 2026-05-05 06:44 | 39.35527 | -0.52948 | 25653 ft | 327 kts | 204° |
| 2026-05-05 06:44 | 39.33344 | -0.53721 | 25241 ft | 323 kts | 203° |
| 2026-05-05 06:45 | 39.31208 | -0.54482 | 24857 ft | 322 kts | 203° |
| 2026-05-05 06:45 | 39.29054 | -0.55251 | 24468 ft | 320 kts | 203° |
| 2026-05-05 06:45 | 39.26910 | -0.56015 | 24074 ft | 319 kts | 202° |
| 2026-05-05 06:45 | 39.24777 | -0.56773 | 23680 ft | 317 kts | 202° |
| 2026-05-05 06:46 | 39.22655 | -0.57529 | 23240 ft | 316 kts | 202° |
| 2026-05-05 06:46 | 39.20545 | -0.58280 | 22841 ft | 314 kts | 202° |
| 2026-05-05 06:46 | 39.18446 | -0.59025 | 22440 ft | 312 kts | 202° |
| 2026-05-05 06:46 | 39.16357 | -0.59764 | 22051 ft | 310 kts | 202° |
| 2026-05-05 06:47 | 39.14284 | -0.60498 | 21654 ft | 309 kts | 202° |
| 2026-05-05 06:47 | 39.12217 | -0.61228 | 21265 ft | 307 kts | 202° |
| 2026-05-05 06:47 | 39.10155 | -0.61954 | 20865 ft | 307 kts | 202° |
| 2026-05-05 06:47 | 39.08093 | -0.62679 | 20468 ft | 306 kts | 201° |
| 2026-05-05 06:48 | 39.06041 | -0.63399 | 20075 ft | 305 kts | 202° |
| 2026-05-05 06:48 | 39.03995 | -0.64121 | 19672 ft | 304 kts | 202° |
| 2026-05-05 06:48 | 39.01959 | -0.64841 | 19275 ft | 303 kts | 202° |
| 2026-05-05 06:48 | 38.99933 | -0.65556 | 18878 ft | 301 kts | 202° |
| 2026-05-05 06:49 | 38.97915 | -0.66271 | 18487 ft | 300 kts | 202° |
| 2026-05-05 06:49 | 38.95904 | -0.66984 | 18067 ft | 299 kts | 202° |
| 2026-05-05 06:49 | 38.93906 | -0.67691 | 17662 ft | 297 kts | 202° |
| 2026-05-05 06:49 | 38.91920 | -0.68393 | 17279 ft | 295 kts | 202° |
| 2026-05-05 06:50 | 38.89942 | -0.69090 | 16900 ft | 294 kts | 202° |
| 2026-05-05 06:50 | 38.87971 | -0.69781 | 16509 ft | 294 kts | 202° |
| 2026-05-05 06:50 | 38.85996 | -0.70472 | 16148 ft | 294 kts | 201° |
| 2026-05-05 06:50 | 38.84024 | -0.71161 | 15772 ft | 294 kts | 201° |
| 2026-05-05 06:51 | 38.82055 | -0.71851 | 15395 ft | 293 kts | 201° |
| 2026-05-05 06:51 | 38.80088 | -0.72542 | 15025 ft | 293 kts | 201° |
| 2026-05-05 06:51 | 38.78149 | -0.73222 | 14652 ft | 293 kts | 201° |
| 2026-05-05 06:51 | 38.76188 | -0.73909 | 14276 ft | 292 kts | 201° |
| 2026-05-05 06:52 | 38.74225 | -0.74597 | 13898 ft | 292 kts | 201° |
| 2026-05-05 06:52 | 38.72264 | -0.75284 | 13486 ft | 292 kts | 200° |
| 2026-05-05 06:52 | 38.70305 | -0.75971 | 13091 ft | 291 kts | 200° |
| 2026-05-05 06:52 | 38.68350 | -0.76654 | 12711 ft | 290 kts | 200° |
| 2026-05-05 06:53 | 38.66406 | -0.77332 | 12308 ft | 289 kts | 199° |
| 2026-05-05 06:53 | 38.64468 | -0.78009 | 11910 ft | 288 kts | 199° |
| 2026-05-05 06:53 | 38.62543 | -0.78679 | 11640 ft | 283 kts | 199° |
| 2026-05-05 06:53 | 38.60677 | -0.79322 | 11504 ft | 270 kts | 199° |
| 2026-05-05 06:54 | 38.58925 | -0.79922 | 11344 ft | 252 kts | 199° |
| 2026-05-05 06:54 | 38.57255 | -0.80501 | 10977 ft | 246 kts | 199° |
| 2026-05-05 06:54 | 38.55642 | -0.81068 | 10752 ft | 242 kts | 200° |
| 2026-05-05 06:54 | 38.54112 | -0.81943 | 10503 ft | 236 kts | 217° |
| 2026-05-05 06:55 | 38.52931 | -0.83318 | 10268 ft | 233 kts | 231° |
| 2026-05-05 06:55 | 38.51899 | -0.84918 | 10036 ft | 233 kts | 229° |
| 2026-05-05 06:55 | 38.50799 | -0.86438 | 9850 ft | 233 kts | 226° |
| 2026-05-05 06:55 | 38.49641 | -0.87891 | 9715 ft | 234 kts | 224° |
| 2026-05-05 06:56 | 38.48422 | -0.89278 | 9450 ft | 234 kts | 221° |
| 2026-05-05 06:56 | 38.47154 | -0.90576 | 9132 ft | 234 kts | 218° |
| 2026-05-05 06:56 | 38.45842 | -0.91797 | 8807 ft | 233 kts | 216° |
| 2026-05-05 06:56 | 38.44487 | -0.92942 | 8486 ft | 233 kts | 213° |
| 2026-05-05 06:57 | 38.43095 | -0.93997 | 8153 ft | 233 kts | 210° |
| 2026-05-05 06:57 | 38.41664 | -0.94960 | 7824 ft | 233 kts | 207° |
| 2026-05-05 06:57 | 38.40197 | -0.95821 | 7493 ft | 233 kts | 205° |
| 2026-05-05 06:57 | 38.38692 | -0.96595 | 7177 ft | 233 kts | 202° |
| 2026-05-05 06:58 | 38.37208 | -0.97309 | 6916 ft | 229 kts | 202° |
| 2026-05-05 06:58 | 38.35597 | -0.97610 | 6379 ft | 241 kts | 170° |
| 2026-05-05 06:58 | 38.34181 | -0.96559 | 6104 ft | 244 kts | 131° |
| 2026-05-05 06:58 | 38.33507 | -0.94603 | 5843 ft | 243 kts | 103° |
| 2026-05-05 06:59 | 38.33233 | -0.92491 | 5531 ft | 240 kts | 99° |
| 2026-05-05 06:59 | 38.32978 | -0.90407 | 5209 ft | 237 kts | 100° |
| 2026-05-05 06:59 | 38.32702 | -0.88341 | 4897 ft | 236 kts | 99° |
| 2026-05-05 06:59 | 38.32420 | -0.86279 | 4596 ft | 236 kts | 99° |
| 2026-05-05 07:00 | 38.32139 | -0.84226 | 4269 ft | 235 kts | 98° |
| 2026-05-05 07:00 | 38.31859 | -0.82182 | 3966 ft | 234 kts | 98° |
| 2026-05-05 07:00 | 38.31579 | -0.80140 | 3657 ft | 234 kts | 98° |
| 2026-05-05 07:00 | 38.31299 | -0.78095 | 3349 ft | 235 kts | 97° |
| 2026-05-05 07:01 | 38.31018 | -0.76051 | 3050 ft | 234 kts | 98° |
| 2026-05-05 07:01 | 38.30738 | -0.74014 | 2734 ft | 231 kts | 98° |
| 2026-05-05 07:01 | 38.30468 | -0.72057 | 2441 ft | 218 kts | 98° |
| 2026-05-05 07:01 | 38.30220 | -0.70228 | 2164 ft | 207 kts | 98° |
| 2026-05-05 07:02 | 38.29982 | -0.68501 | 1962 ft | 190 kts | 99° |
| 2026-05-05 07:02 | 38.29756 | -0.66897 | 1684 ft | 176 kts | 99° |
| 2026-05-05 07:02 | 38.29561 | -0.65434 | 1481 ft | 160 kts | 97° |
| 2026-05-05 07:02 | 38.29371 | -0.64063 | 1210 ft | 154 kts | 99° |
| 2026-05-05 07:03 | 38.29185 | -0.62752 | 1009 ft | 148 kts | 98° |
| 2026-05-05 07:03 | 38.29008 | -0.61485 | 812 ft | 146 kts | 99° |
| 2026-05-05 07:03 | 38.28833 | -0.60212 | 624 ft | 143 kts | 99° |
| 2026-05-05 07:03 | 38.28662 | -0.58991 | 426 ft | 141 kts | 100° |
| 2026-05-05 07:04 | 38.28492 | -0.57777 | 249 ft | 138 kts | 99° |
| 2026-05-05 07:04 | 38.28330 | -0.56621 | 127 ft | 121 kts | 101° |
| 2026-05-05 07:04 | 38.28230 | -0.55910 | 104 ft | 38 kts | 100° |
| 2026-05-05 07:04 | 38.28214 | -0.55732 | 98 ft | 19 kts | 90° |
| 2026-05-05 07:05 | 38.28241 | -0.55553 | 94 ft | 19 kts | 69° |
| 2026-05-05 07:05 | 38.28266 | -0.55469 | 90 ft | 3 kts | 69° |
| 2026-05-05 07:05 | 38.28273 | -0.55444 | 90 ft | 2 kts | 69° |
| 2026-05-05 07:05 | 38.28279 | -0.55424 | 89 ft | 3 kts | 69° |
| 2026-05-05 07:06 | 38.28287 | -0.55396 | 90 ft | 4 kts | 69° |
| 2026-05-05 07:06 | 38.28299 | -0.55357 | 89 ft | 5 kts | 70° |
| 2026-05-05 07:06 | 38.28314 | -0.55306 | 88 ft | 7 kts | 69° |
| 2026-05-05 07:06 | 38.28337 | -0.55247 | 86 ft | 8 kts | 58° |
| 2026-05-05 07:07 | 38.28367 | -0.55192 | 86 ft | 7 kts | 54° |
| 2026-05-05 07:07 | 38.28393 | -0.55159 | 88 ft | 4 kts | 30° |
| 2026-05-05 07:07 | 38.28427 | -0.55163 | 92 ft | 6 kts | 326° |
| 2026-05-05 07:07 | 38.28445 | -0.55230 | 93 ft | 9 kts | 281° |
| 2026-05-05 07:08 | 38.28457 | -0.55311 | 96 ft | 9 kts | 281° |
| 2026-05-05 07:08 | 38.28468 | -0.55394 | 95 ft | 10 kts | 279° |
| 2026-05-05 07:08 | 38.28478 | -0.55474 | 98 ft | 9 kts | 280° |
| 2026-05-05 07:08 | 38.28490 | -0.55551 | 98 ft | 8 kts | 283° |
| 2026-05-05 07:09 | 38.28513 | -0.55592 | 98 ft | 7 kts | 339° |
| 2026-05-05 07:09 | 38.28542 | -0.55590 | 96 ft | 2 kts | 8° |
| 2026-05-05 07:09 | 38.28563 | -0.55586 | 96 ft | 2 kts | 10° |
| 2026-05-05 07:09 | 38.28566 | -0.55585 | 96 ft | 0 kts | 10° |